createdAt,value
2022-12-26T00:01:31.464Z,100507.84
2022-12-26T00:04:01.031Z,100507.31
2022-12-26T00:06:32.043Z,100508.00
2022-12-26T00:09:02.887Z,100510.50
2022-12-26T00:11:31.701Z,100499.25
2022-12-26T00:14:03.937Z,100487.31
2022-12-26T00:16:32.239Z,100485.31
2022-12-26T00:19:03.480Z,100479.94
2022-12-26T00:21:32.335Z,100481.44
2022-12-26T00:24:02.064Z,100473.91
2022-12-26T00:26:32.590Z,100464.97
2022-12-26T00:29:00.860Z,100453.41
2022-12-26T00:31:33.126Z,100448.41
2022-12-26T00:34:03.446Z,100459.50
2022-12-26T00:36:35.008Z,100454.13
2022-12-26T00:39:04.913Z,100453.13
2022-12-26T00:41:33.917Z,100457.16
2022-12-26T00:44:02.113Z,100451.44
2022-12-26T00:46:30.147Z,100447.09
2022-12-26T00:48:58.980Z,100445.75
2022-12-26T00:51:28.571Z,100438.00
2022-12-26T00:53:56.859Z,100440.56
2022-12-26T00:56:24.889Z,100448.63
2022-12-26T00:58:53.378Z,100442.75
2022-12-26T01:01:24.525Z,100434.69
2022-12-26T01:03:53.263Z,100418.72
2022-12-26T01:06:24.531Z,100413.34
2022-12-26T01:08:54.735Z,100413.00
2022-12-26T01:11:37.345Z,100416.72
2022-12-26T01:14:05.472Z,100430.31
2022-12-26T01:16:33.626Z,100420.25
2022-12-26T01:19:01.743Z,100415.19
2022-12-26T01:21:29.720Z,100418.22
2022-12-26T01:23:59.031Z,100413.50
2022-12-26T01:26:27.308Z,100415.53
2022-12-26T01:28:55.970Z,100422.41
2022-12-26T01:31:24.943Z,100429.66
2022-12-26T01:33:52.887Z,100435.22
2022-12-26T01:36:20.993Z,100430.00
2022-12-26T01:38:49.235Z,100414.34
2022-12-26T01:41:19.997Z,100406.63
2022-12-26T01:43:58.002Z,100403.25
2022-12-26T01:46:33.442Z,100400.75
2022-12-26T01:49:09.601Z,100407.81
2022-12-26T01:51:45.230Z,100405.63
2022-12-26T01:54:40.002Z,100408.81
2022-12-26T01:57:11.763Z,100392.84
2022-12-26T01:59:43.122Z,100390.69
2022-12-26T02:02:12.344Z,100399.72
2022-12-26T02:05:04.253Z,100400.41
2022-12-26T02:07:35.028Z,100404.78
2022-12-26T02:10:03.601Z,100406.28
2022-12-26T02:12:38.912Z,100410.50
2022-12-26T02:15:12.805Z,100410.84
2022-12-26T02:17:42.234Z,100409.47
2022-12-26T02:20:22.715Z,100405.94
2022-12-26T02:23:50.806Z,100387.97
2022-12-26T02:27:17.918Z,100397.06
2022-12-26T02:30:22.346Z,100391.50
2022-12-26T02:33:25.226Z,100393.69
2022-12-26T02:36:23.722Z,100389.50
2022-12-26T02:39:43.539Z,100373.19
2022-12-26T02:42:15.370Z,100376.22
2022-12-26T02:45:08.208Z,100377.22
2022-12-26T02:47:49.223Z,100378.22
2022-12-26T02:50:52.021Z,100378.03
2022-12-26T02:53:50.675Z,100381.72
2022-12-26T02:56:46.204Z,100394.50
2022-12-26T02:59:55.382Z,100393.84
2022-12-26T03:02:50.521Z,100385.09
2022-12-26T03:05:48.947Z,100392.50
2022-12-26T03:08:43.517Z,100389.94
2022-12-26T03:11:29.374Z,100392.31
2022-12-26T03:14:12.211Z,100403.91
2022-12-26T03:16:58.084Z,100402.19
2022-12-26T03:19:29.730Z,100394.97
2022-12-26T03:22:23.283Z,100382.34
2022-12-26T03:25:07.906Z,100383.22
2022-12-26T03:27:36.056Z,100391.78
2022-12-26T03:30:22.752Z,100401.66
2022-12-26T03:32:50.861Z,100405.38
2022-12-26T03:35:19.441Z,100411.06
2022-12-26T03:37:57.863Z,100406.69
2022-12-26T03:41:07.515Z,100397.13
2022-12-26T03:44:17.442Z,100390.38
2022-12-26T03:47:23.335Z,100392.56
2022-12-26T03:50:15.283Z,100388.66
2022-12-26T03:53:14.743Z,100401.31
2022-12-26T03:56:13.843Z,100401.97
2022-12-26T03:59:08.287Z,100403.31
2022-12-26T04:01:59.564Z,100394.25
2022-12-26T04:04:51.774Z,100390.53
2022-12-26T04:07:56.580Z,100404.00
2022-12-26T04:10:52.050Z,100430.56
2022-12-26T04:13:50.899Z,100420.78
2022-12-26T04:16:50.314Z,100417.44
2022-12-26T04:19:34.679Z,100409.06
2022-12-26T04:22:31.061Z,100411.75
2022-12-26T04:25:50.300Z,100412.25
2022-12-26T04:28:32.617Z,100405.34
2022-12-26T04:31:27.658Z,100413.41
2022-12-26T04:34:20.916Z,100420.81
2022-12-26T04:37:15.662Z,100408.72
2022-12-26T04:40:09.614Z,100422.16
2022-12-26T04:43:00.153Z,100431.56
2022-12-26T04:45:30.421Z,100431.72
2022-12-26T04:48:15.910Z,100441.84
2022-12-26T04:50:51.757Z,100437.16
2022-12-26T04:53:21.992Z,100442.19
2022-12-26T04:55:50.157Z,100440.72
2022-12-26T04:58:18.722Z,100436.66
2022-12-26T05:00:48.052Z,100431.63
2022-12-26T05:03:33.572Z,100443.72
2022-12-26T05:06:19.425Z,100435.31
2022-12-26T05:09:06.368Z,100442.69
2022-12-26T05:11:36.257Z,100446.91
2022-12-26T05:14:04.234Z,100440.72
2022-12-26T05:16:51.245Z,100446.41
2022-12-26T05:19:36.600Z,100449.78
2022-12-26T05:22:24.068Z,100461.22
2022-12-26T05:25:11.075Z,100462.06
2022-12-26T05:28:01.481Z,100463.41
2022-12-26T05:30:30.116Z,100462.91
2022-12-26T05:33:16.880Z,100472.81
2022-12-26T05:35:45.105Z,100462.91
2022-12-26T05:38:13.127Z,100467.94
2022-12-26T05:40:41.114Z,100467.25
2022-12-26T05:43:09.126Z,100475.69
2022-12-26T05:45:37.155Z,100478.22
2022-12-26T05:48:07.539Z,100475.22
2022-12-26T05:50:35.577Z,100479.06
2022-12-26T05:53:04.076Z,100474.84
2022-12-26T05:55:32.171Z,100463.06
2022-12-26T05:58:01.399Z,100465.78
2022-12-26T06:00:30.042Z,100471.16
2022-12-26T06:03:02.044Z,100476.22
2022-12-26T06:05:31.653Z,100478.03
2022-12-26T06:07:59.779Z,100477.19
2022-12-26T06:10:29.637Z,100482.09
2022-12-26T06:12:58.054Z,100470.50
2022-12-26T06:15:26.069Z,100488.13
2022-12-26T06:17:56.551Z,100492.16
2022-12-26T06:20:24.672Z,100486.09
2022-12-26T06:22:54.085Z,100487.97
2022-12-26T06:25:22.130Z,100476.03
2022-12-26T06:27:50.157Z,100472.31
2022-12-26T06:30:18.331Z,100471.31
2022-12-26T06:32:46.294Z,100470.81
2022-12-26T06:35:14.367Z,100476.69
2022-12-26T06:37:42.335Z,100476.69
2022-12-26T06:40:12.485Z,100485.94
2022-12-26T06:42:40.464Z,100493.03
2022-12-26T06:45:09.933Z,100504.13
2022-12-26T06:47:37.922Z,100527.81
2022-12-26T06:50:06.908Z,100536.38
2022-12-26T06:52:34.913Z,100542.25
2022-12-26T06:55:02.941Z,100538.94
2022-12-26T06:57:32.551Z,100542.78
2022-12-26T07:00:00.630Z,100547.34
2022-12-26T07:02:28.714Z,100536.25
2022-12-26T07:04:57.040Z,100539.25
2022-12-26T07:07:25.061Z,100541.63
2022-12-26T07:09:53.052Z,100535.91
2022-12-26T07:12:21.944Z,100543.97
2022-12-26T07:14:52.041Z,100540.44
2022-12-26T07:17:21.548Z,100537.91
2022-12-26T07:19:49.520Z,100538.59
2022-12-26T07:22:17.986Z,100537.06
2022-12-26T07:24:45.982Z,100546.31
2022-12-26T07:27:13.923Z,100542.44
2022-12-26T07:29:41.982Z,100551.88
2022-12-26T07:32:11.531Z,100543.63
2022-12-26T07:34:39.765Z,100547.00
2022-12-26T07:37:07.935Z,100535.56
2022-12-26T07:39:39.452Z,100534.88
2022-12-26T07:42:07.866Z,100527.66
2022-12-26T07:44:35.862Z,100535.41
2022-12-26T07:47:03.891Z,100549.84
2022-12-26T07:49:33.206Z,100557.59
2022-12-26T07:52:02.225Z,100553.88
2022-12-26T07:54:32.190Z,100567.50
2022-12-26T07:57:29.702Z,100566.16
2022-12-26T07:59:51.999Z,100572.19
2022-12-26T08:02:21.534Z,100580.44
2022-12-26T08:04:51.020Z,100570.19
2022-12-26T08:07:19.124Z,100566.16
2022-12-26T08:09:47.286Z,100570.19
2022-12-26T08:12:15.340Z,100570.03
2022-12-26T08:14:43.391Z,100574.75
2022-12-26T08:17:11.435Z,100572.19
2022-12-26T08:19:39.572Z,100572.53
2022-12-26T08:22:08.972Z,100570.03
2022-12-26T08:24:36.998Z,100567.50
2022-12-26T08:27:05.721Z,100569.84
2022-12-26T08:29:33.849Z,100573.41
2022-12-26T08:32:01.939Z,100577.25
2022-12-26T08:34:34.657Z,100573.38
2022-12-26T08:37:02.907Z,100574.56
2022-12-26T08:39:32.303Z,100580.28
2022-12-26T08:42:00.360Z,100576.59
2022-12-26T08:44:28.999Z,100585.00
2022-12-26T08:46:57.404Z,100592.22
2022-12-26T08:49:25.684Z,100597.47
2022-12-26T08:51:53.740Z,100586.69
2022-12-26T08:54:21.794Z,100584.50
2022-12-26T08:56:51.208Z,100575.94
2022-12-26T08:59:19.654Z,100578.44
2022-12-26T09:01:47.777Z,100581.63
2022-12-26T09:04:15.924Z,100576.59
2022-12-26T09:06:44.035Z,100595.25
2022-12-26T09:09:13.800Z,100603.69
2022-12-26T09:11:42.548Z,100615.97
2022-12-26T09:14:12.615Z,100620.16
2022-12-26T09:16:49.750Z,100616.28
2022-12-26T09:19:20.000Z,100622.38
2022-12-26T09:22:10.482Z,100622.22
2022-12-26T09:24:38.482Z,100621.69
2022-12-26T09:27:06.523Z,100626.09
2022-12-26T09:29:38.095Z,100632.66
2022-12-26T09:32:06.974Z,100630.13
2022-12-26T09:34:35.022Z,100625.94
2022-12-26T09:37:02.946Z,100637.03
2022-12-26T09:39:30.981Z,100627.44
2022-12-26T09:42:15.542Z,100616.16
2022-12-26T09:44:58.202Z,100620.34
2022-12-26T09:47:36.595Z,100624.06
2022-12-26T09:50:13.686Z,100621.03
2022-12-26T09:52:50.211Z,100615.13
2022-12-26T09:55:35.395Z,100618.34
2022-12-26T09:58:15.280Z,100625.06
2022-12-26T10:00:53.583Z,100623.75
2022-12-26T10:03:24.434Z,100625.06
2022-12-26T10:06:11.380Z,100630.13
2022-12-26T10:09:19.960Z,100635.16
2022-12-26T10:12:17.195Z,100638.84
2022-12-26T10:14:56.417Z,100641.91
2022-12-26T10:17:37.712Z,100646.94
2022-12-26T10:20:28.901Z,100652.31
2022-12-26T10:23:39.846Z,100656.38
2022-12-26T10:26:16.819Z,100665.13
2022-12-26T10:28:52.743Z,100660.94
2022-12-26T10:31:28.316Z,100653.19
2022-12-26T10:34:10.058Z,100645.28
2022-12-26T10:36:45.577Z,100653.00
2022-12-26T10:39:22.024Z,100646.75
2022-12-26T10:41:56.777Z,100637.16
2022-12-26T10:44:27.863Z,100630.75
2022-12-26T10:47:26.241Z,100633.66
2022-12-26T10:49:59.783Z,100643.56
2022-12-26T10:52:34.251Z,100638.03
2022-12-26T10:55:28.231Z,100643.72
2022-12-26T10:57:54.808Z,100647.25
2022-12-26T11:00:27.308Z,100643.56
2022-12-26T11:03:07.810Z,100644.53
2022-12-26T11:06:07.086Z,100645.72
2022-12-26T11:08:43.099Z,100656.00
2022-12-26T11:11:23.660Z,100654.81
2022-12-26T11:14:01.864Z,100642.53
2022-12-26T11:16:35.862Z,100650.09
2022-12-26T11:19:04.368Z,100644.50
2022-12-26T11:21:35.316Z,100650.06
2022-12-26T11:24:20.514Z,100649.59
2022-12-26T11:26:49.613Z,100649.59
2022-12-26T11:29:21.887Z,100647.72
2022-12-26T11:31:55.811Z,100647.03
2022-12-26T11:34:32.579Z,100633.75
2022-12-26T11:37:02.754Z,100621.78
2022-12-26T11:39:35.778Z,100629.03
2022-12-26T11:42:12.401Z,100626.00
2022-12-26T11:44:46.095Z,100645.53
2022-12-26T11:47:17.599Z,100639.50
2022-12-26T11:49:58.541Z,100636.66
2022-12-26T11:52:39.153Z,100641.34
2022-12-26T11:55:37.026Z,100647.06
2022-12-26T11:58:21.669Z,100643.56
2022-12-26T12:01:17.401Z,100636.81
2022-12-26T12:03:49.924Z,100643.56
2022-12-26T12:06:49.320Z,100648.59
2022-12-26T12:09:30.987Z,100644.53
2022-12-26T12:12:11.272Z,100649.06
2022-12-26T12:14:59.917Z,100645.88
2022-12-26T12:17:40.707Z,100628.38
2022-12-26T12:20:33.428Z,100627.38
2022-12-26T12:23:30.607Z,100619.78
2022-12-26T12:26:11.720Z,100613.41
2022-12-26T12:29:17.744Z,100609.72
2022-12-26T12:32:08.153Z,100615.25
2022-12-26T12:35:07.231Z,100618.63
2022-12-26T12:37:54.808Z,100609.22
2022-12-26T12:40:36.619Z,100605.84
2022-12-26T12:43:19.232Z,100607.88
2022-12-26T12:45:58.475Z,100603.16
2022-12-26T12:49:24.892Z,100609.56
2022-12-26T12:52:13.325Z,100598.13
2022-12-26T12:55:18.481Z,100604.00
2022-12-26T12:57:56.094Z,100604.84
2022-12-26T13:00:33.574Z,100600.94
2022-12-26T13:03:11.589Z,100604.88
2022-12-26T13:05:47.920Z,100610.56
2022-12-26T13:08:25.021Z,100606.03
2022-12-26T13:10:58.865Z,100610.22
2022-12-26T13:13:34.220Z,100610.72
2022-12-26T13:16:12.718Z,100605.81
2022-12-26T13:18:49.173Z,100614.22
2022-12-26T13:21:18.605Z,100621.09
2022-12-26T13:24:11.658Z,100628.34
2022-12-26T13:26:46.069Z,100620.97
2022-12-26T13:29:20.216Z,100620.97
2022-12-26T13:31:49.638Z,100623.84
2022-12-26T13:34:21.678Z,100617.94
2022-12-26T13:36:53.018Z,100616.41
2022-12-26T13:39:42.121Z,100616.91
2022-12-26T13:42:49.899Z,100610.22
2022-12-26T13:45:58.176Z,100613.06
2022-12-26T13:49:00.852Z,100616.44
2022-12-26T13:51:50.583Z,100614.09
2022-12-26T13:54:20.721Z,100617.59
2022-12-26T13:57:37.227Z,100630.41
2022-12-26T14:00:24.016Z,100614.25
2022-12-26T14:03:43.894Z,100629.22
2022-12-26T14:06:55.960Z,100628.06
2022-12-26T14:09:42.903Z,100641.00
2022-12-26T14:12:45.202Z,100633.63
2022-12-26T14:15:41.913Z,100643.34
2022-12-26T14:18:28.530Z,100640.66
2022-12-26T14:21:31.389Z,100642.50
2022-12-26T14:24:09.881Z,100648.19
2022-12-26T14:26:49.805Z,100643.47
2022-12-26T14:29:29.332Z,100650.50
2022-12-26T14:32:29.809Z,100646.34
2022-12-26T14:35:12.900Z,100650.50
2022-12-26T14:37:58.783Z,100653.22
2022-12-26T14:40:34.579Z,100657.09
2022-12-26T14:43:11.052Z,100651.88
2022-12-26T14:45:45.622Z,100643.81
2022-12-26T14:48:50.384Z,100644.28
2022-12-26T14:51:41.162Z,100646.84
2022-12-26T14:54:50.868Z,100651.19
2022-12-26T14:57:49.552Z,100648.38
2022-12-26T15:00:32.524Z,100646.50
2022-12-26T15:03:45.694Z,100636.09
2022-12-26T15:07:05.583Z,100638.44
2022-12-26T15:10:22.119Z,100640.16
2022-12-26T15:13:50.014Z,100630.72
2022-12-26T15:16:42.214Z,100643.00
2022-12-26T15:19:59.246Z,100644.16
2022-12-26T15:23:13.423Z,100643.53
2022-12-26T15:26:34.531Z,100637.63
2022-12-26T15:30:01.515Z,100643.34
2022-12-26T15:32:40.338Z,100641.63
2022-12-26T15:35:28.567Z,100632.88
2022-12-26T15:38:35.025Z,100631.19
2022-12-26T15:41:15.409Z,100629.50
2022-12-26T15:44:15.186Z,100628.69
2022-12-26T15:46:45.239Z,100631.06
2022-12-26T15:49:40.782Z,100636.25
2022-12-26T15:52:26.384Z,100620.97
2022-12-26T15:55:30.726Z,100627.84
2022-12-26T15:58:07.188Z,100628.28
2022-12-26T16:00:41.472Z,100629.59
2022-12-26T16:03:26.002Z,100627.44
2022-12-26T16:06:10.060Z,100631.47
2022-12-26T16:09:23.251Z,100635.31
2022-12-26T16:11:56.478Z,100631.47
2022-12-26T16:14:32.412Z,100634.81
2022-12-26T16:17:22.961Z,100636.00
2022-12-26T16:19:53.451Z,100629.78
2022-12-26T16:22:44.095Z,100641.38
2022-12-26T16:25:16.102Z,100648.09
2022-12-26T16:27:46.724Z,100644.25
2022-12-26T16:30:19.724Z,100648.44
2022-12-26T16:32:50.073Z,100639.19
2022-12-26T16:35:23.240Z,100640.69
2022-12-26T16:37:54.605Z,100641.72
2022-12-26T16:40:28.991Z,100646.25
2022-12-26T16:43:04.720Z,100648.25
2022-12-26T16:45:37.067Z,100657.69
2022-12-26T16:48:10.370Z,100659.53
2022-12-26T16:50:48.868Z,100672.59
2022-12-26T16:53:20.526Z,100672.25
2022-12-26T16:55:52.608Z,100682.78
2022-12-26T16:58:26.335Z,100692.72
2022-12-26T17:01:08.004Z,100697.38
2022-12-26T17:03:49.056Z,100688.09
2022-12-26T17:06:27.551Z,100684.56
2022-12-26T17:08:58.209Z,100689.47
2022-12-26T17:11:34.691Z,100691.47
2022-12-26T17:14:06.948Z,100690.59
2022-12-26T17:16:35.846Z,100695.00
2022-12-26T17:19:19.679Z,100700.19
2022-12-26T17:22:22.426Z,100687.56
2022-12-26T17:24:52.611Z,100699.28
2022-12-26T17:27:24.338Z,100707.28
2022-12-26T17:29:56.916Z,100710.31
2022-12-26T17:32:33.110Z,100706.25
2022-12-26T17:35:08.312Z,100705.38
2022-12-26T17:37:36.842Z,100723.72
2022-12-26T17:40:22.036Z,100730.25
2022-12-26T17:42:53.766Z,100716.34
2022-12-26T17:45:25.131Z,100718.50
2022-12-26T17:47:54.804Z,100714.75
2022-12-26T17:50:31.120Z,100725.50
2022-12-26T17:53:40.359Z,100724.13
2022-12-26T17:56:15.093Z,100731.66
2022-12-26T17:58:43.379Z,100726.94
2022-12-26T18:01:16.008Z,100734.94
2022-12-26T18:03:47.095Z,100742.03
2022-12-26T18:06:18.122Z,100747.41
2022-12-26T18:08:46.472Z,100740.97
2022-12-26T18:11:16.123Z,100746.94
2022-12-26T18:13:45.382Z,100758.84
2022-12-26T18:16:18.444Z,100765.66
2022-12-26T18:18:49.261Z,100765.66
2022-12-26T18:21:18.610Z,100779.84
2022-12-26T18:23:46.866Z,100779.41
2022-12-26T18:26:25.229Z,100774.50
2022-12-26T18:28:53.928Z,100773.81
2022-12-26T18:31:22.462Z,100775.97
2022-12-26T18:33:50.651Z,100774.06
2022-12-26T18:36:23.185Z,100780.47
2022-12-26T18:38:51.147Z,100781.47
2022-12-26T18:41:21.727Z,100785.00
2022-12-26T18:43:49.782Z,100781.84
2022-12-26T18:46:19.802Z,100777.47
2022-12-26T18:48:48.697Z,100805.75
2022-12-26T18:51:16.763Z,100804.91
2022-12-26T18:53:46.180Z,100807.47
2022-12-26T18:56:18.343Z,100806.50
2022-12-26T18:58:46.478Z,100794.59
2022-12-26T19:01:18.693Z,100800.69
2022-12-26T19:03:46.902Z,100812.41
2022-12-26T19:06:20.429Z,100829.06
2022-12-26T19:08:50.039Z,100832.75
2022-12-26T19:11:18.134Z,100834.22
2022-12-26T19:13:46.210Z,100842.13
2022-12-26T19:16:14.657Z,100846.09
2022-12-26T19:18:42.739Z,100861.63
2022-12-26T19:21:13.931Z,100856.81
2022-12-26T19:23:42.569Z,100861.34
2022-12-26T19:26:14.742Z,100876.56
2022-12-26T19:28:42.994Z,100872.91
2022-12-26T19:31:13.633Z,100870.97
2022-12-26T19:33:42.179Z,100867.00
2022-12-26T19:36:11.304Z,100867.59
2022-12-26T19:38:39.510Z,100873.34
2022-12-26T19:41:13.465Z,100882.38
2022-12-26T19:43:42.731Z,100891.53
2022-12-26T19:46:15.526Z,100903.22
2022-12-26T19:48:44.035Z,100906.72
2022-12-26T19:51:16.342Z,100906.59
2022-12-26T19:53:46.802Z,100912.22
2022-12-26T19:56:19.768Z,100918.56
2022-12-26T19:58:53.244Z,100916.63
2022-12-26T20:01:26.986Z,100925.03
2022-12-26T20:03:57.040Z,100940.00
2022-12-26T20:06:27.491Z,100932.50
2022-12-26T20:09:00.202Z,100941.53
2022-12-26T20:11:33.573Z,100944.19
2022-12-26T20:14:03.586Z,100942.25
2022-12-26T20:17:05.076Z,100952.38
2022-12-26T20:19:20.569Z,100952.66
2022-12-26T20:21:49.293Z,100965.03
2022-12-26T20:24:18.659Z,100956.13
2022-12-26T20:26:48.669Z,100959.34
2022-12-26T20:29:17.079Z,100956.84
2022-12-26T20:31:45.607Z,100970.63
2022-12-26T20:34:14.183Z,100965.69
2022-12-26T20:36:43.427Z,100965.84
2022-12-26T20:39:16.875Z,100970.31
2022-12-26T20:41:44.958Z,100972.53
2022-12-26T20:44:16.690Z,100985.19
2022-12-26T20:46:46.579Z,100986.97
2022-12-26T20:49:14.910Z,100983.44
2022-12-26T20:51:45.534Z,100998.91
2022-12-26T20:54:16.231Z,101000.56
2022-12-26T20:56:44.717Z,100999.44
2022-12-26T20:59:14.091Z,101007.25
2022-12-26T21:01:42.991Z,100998.75
2022-12-26T21:04:18.144Z,101015.06
2022-12-26T21:06:47.448Z,101012.22
2022-12-26T21:09:15.665Z,101026.81
2022-12-26T21:11:45.576Z,101029.66
2022-12-26T21:14:18.967Z,101030.00
2022-12-26T21:16:49.834Z,101030.72
2022-12-26T21:19:18.998Z,101038.50
2022-12-26T21:21:50.308Z,101035.38
2022-12-26T21:24:21.816Z,101025.31
2022-12-26T21:26:50.290Z,101030.53
2022-12-26T21:29:23.768Z,101036.13
2022-12-26T21:31:53.413Z,101052.44
2022-12-26T21:34:23.625Z,101055.25
2022-12-26T21:37:06.833Z,101052.56
2022-12-26T21:39:37.010Z,101056.06
2022-12-26T21:42:07.957Z,101069.44
2022-12-26T21:44:39.194Z,101082.22
2022-12-26T21:47:08.797Z,101081.56
2022-12-26T21:49:38.053Z,101094.63
2022-12-26T21:52:07.148Z,101094.63
2022-12-26T21:54:53.288Z,101101.91
2022-12-26T21:57:22.178Z,101106.25
2022-12-26T21:59:57.843Z,101110.06
2022-12-26T22:02:43.065Z,101103.66
2022-12-26T22:05:11.243Z,101105.59
2022-12-26T22:07:39.559Z,101098.03
2022-12-26T22:10:09.263Z,101092.69
2022-12-26T22:12:54.459Z,101105.72
2022-12-26T22:15:41.263Z,101104.63
2022-12-26T22:18:09.464Z,101104.75
2022-12-26T22:20:37.611Z,101122.31
2022-12-26T22:23:06.064Z,101127.72
2022-12-26T22:25:34.207Z,101138.00
2022-12-26T22:28:02.248Z,101144.34
2022-12-26T22:30:31.671Z,101159.66
2022-12-26T22:32:59.662Z,101168.13
2022-12-26T22:35:28.410Z,101162.66
2022-12-26T22:37:56.401Z,101175.81
2022-12-26T22:40:24.381Z,101167.66
2022-12-26T22:42:52.548Z,101182.84
2022-12-26T22:45:20.571Z,101184.91
2022-12-26T22:47:49.970Z,101187.94
2022-12-26T22:50:18.479Z,101193.78
2022-12-26T22:52:46.534Z,101194.38
2022-12-26T22:55:15.052Z,101198.53
2022-12-26T22:57:48.139Z,101206.63
2022-12-26T23:00:19.329Z,101206.88
2022-12-26T23:02:47.389Z,101205.47
2022-12-26T23:05:18.129Z,101209.59
2022-12-26T23:07:47.221Z,101204.94
2022-12-26T23:10:22.524Z,101208.97
2022-12-26T23:12:51.831Z,101217.25
2022-12-26T23:15:22.719Z,101217.50
2022-12-26T23:18:23.704Z,101222.72
2022-12-26T23:21:12.229Z,101220.53
2022-12-26T23:23:41.019Z,101221.50
2022-12-26T23:26:09.106Z,101217.63
2022-12-26T23:28:54.628Z,101215.28
2022-12-26T23:31:22.742Z,101216.16
2022-12-26T23:33:50.747Z,101212.41
2022-12-26T23:36:20.146Z,101220.16
2022-12-26T23:38:48.198Z,101217.63
2022-12-26T23:41:16.208Z,101225.38
2022-12-26T23:43:44.134Z,101227.69
2022-12-26T23:46:12.477Z,101226.09
2022-12-26T23:48:40.444Z,101228.19
2022-12-26T23:51:10.218Z,101233.66
2022-12-26T23:53:39.595Z,101243.50
2022-12-26T23:56:10.463Z,101233.53
2022-12-26T23:58:39.876Z,101246.75
